Time;durP1;ratioP1;P1;durP2;ratioP2;P2;SDS_P1;SDS_P2;PMS_P1;PMS_P2;Temp;Humidity;BMP_temperature;BMP_pressure;BME280_temperature;BME280_humidity;BME280_pressure;Samples;Min_cycle;Max_cycle;Signal;HPM_P1;HPM_P2
2021/07/13 00:00:25;;;;;;;3.80;3.40;;;;;;;;;;5063706;28;20064;-78
2021/07/13 00:02:52;;;;;;;4.95;3.53;;;;;;;;;;5036925;28;20106;-78
2021/07/13 00:05:19;;;;;;;4.25;3.47;;;;;;;;;;5061354;28;20040;-77
2021/07/13 00:07:46;;;;;;;4.85;3.33;;;;;;;;;;5050854;28;20055;-78
2021/07/13 00:10:14;;;;;;;3.60;3.22;;;;;;;;;;5058542;28;20378;-82
2021/07/13 00:12:41;;;;;;;5.18;3.80;;;;;;;;;;5062515;28;20456;-77
2021/07/13 00:15:15;;;;;;;4.65;3.35;;;;;;;;;;5054498;28;20068;-77
2021/07/13 00:17:42;;;;;;;4.85;4.00;;;;;;;;;;5061833;28;20118;-77
2021/07/13 00:20:08;;;;;;;4.05;3.58;;;;;;;;;;5053953;28;20052;-77
2021/07/13 00:22:35;;;;;;;4.32;3.40;;;;;;;;;;5054688;28;20132;-76
2021/07/13 00:25:01;;;;;;;4.05;3.60;;;;;;;;;;5041501;28;20122;-77
2021/07/13 00:27:28;;;;;;;5.03;3.60;;;;;;;;;;5032722;28;20064;-77
2021/07/13 00:29:54;;;;;;;5.38;3.72;;;;;;;;;;5033073;28;20069;-77
2021/07/13 00:32:21;;;;;;;3.55;3.20;;;;;;;;;;5038869;28;20053;-77
2021/07/13 00:34:47;;;;;;;3.90;3.47;;;;;;;;;;5039994;28;20073;-76
2021/07/13 00:37:13;;;;;;;5.15;3.60;;;;;;;;;;5039511;28;20061;-77
2021/07/13 00:39:40;;;;;;;4.10;3.33;;;;;;;;;;5031976;28;20099;-77
2021/07/13 00:42:12;;;;;;;4.25;3.85;;;;;;;;;;5038124;28;20061;-77
2021/07/13 00:44:38;;;;;;;3.90;3.50;;;;;;;;;;5042299;28;20068;-78
2021/07/13 00:47:05;;;;;;;4.07;3.50;;;;;;;;;;5037215;28;20098;-78
2021/07/13 00:49:31;;;;;;;5.28;4.00;;;;;;;;;;5040693;28;20119;-77
2021/07/13 00:52:00;;;;;;;4.30;3.50;;;;;;;;;;5029881;28;20764;-78
2021/07/13 00:54:27;;;;;;;4.70;3.58;;;;;;;;;;5034134;28;20069;-78
2021/07/13 00:56:55;;;;;;;5.07;3.70;;;;;;;;;;5039223;28;20095;-78
2021/07/13 00:59:22;;;;;;;4.63;3.88;;;;;;;;;;5031655;28;20136;-78
2021/07/13 01:01:49;;;;;;;6.03;3.72;;;;;;;;;;5032727;28;20086;-76
2021/07/13 01:04:16;;;;;;;4.43;3.55;;;;;;;;;;5038210;28;20081;-77
2021/07/13 01:07:03;;;;;;;4.82;3.97;;;;;;;;;;5035343;28;20129;-77
2021/07/13 01:09:52;;;;;;;5.18;3.95;;;;;;;;;;5031736;28;21552;-77
2021/07/13 01:12:31;;;;;;;4.57;3.92;;;;;;;;;;5029147;28;22257;-78
2021/07/13 01:14:59;;;;;;;4.65;3.85;;;;;;;;;;5036986;28;20202;-77
2021/07/13 01:17:44;;;;;;;5.22;4.00;;;;;;;;;;5036166;28;20211;-79
2021/07/13 01:20:30;;;;;;;4.55;4.05;;;;;;;;;;5039789;28;20068;-78
2021/07/13 01:23:20;;;;;;;5.00;3.67;;;;;;;;;;5028714;28;20127;-79
2021/07/13 01:26:02;;;;;;;5.38;4.10;;;;;;;;;;5046457;28;20524;-78
2021/07/13 01:28:29;;;;;;;5.55;3.80;;;;;;;;;;5054638;28;21333;-77
2021/07/13 01:30:58;;;;;;;5.32;4.05;;;;;;;;;;5048324;28;20122;-78
2021/07/13 01:33:27;;;;;;;4.35;3.95;;;;;;;;;;5063061;28;20052;-78
2021/07/13 01:36:08;;;;;;;4.70;3.65;;;;;;;;;;5051062;28;20060;-78
2021/07/13 01:38:37;;;;;;;4.80;3.92;;;;;;;;;;5038944;28;20065;-78
2021/07/13 01:41:06;;;;;;;4.57;3.70;;;;;;;;;;5049067;28;20072;-78
2021/07/13 01:43:35;;;;;;;4.00;3.60;;;;;;;;;;5054377;28;20037;-78
2021/07/13 01:46:02;;;;;;;4.72;4.20;;;;;;;;;;5056677;28;20176;-78
2021/07/13 01:48:30;;;;;;;4.43;4.03;;;;;;;;;;5059114;28;20055;-78
2021/07/13 01:50:57;;;;;;;4.43;4.00;;;;;;;;;;5051568;28;20064;-77
2021/07/13 01:53:24;;;;;;;4.97;3.75;;;;;;;;;;5060883;28;20075;-76
2021/07/13 01:55:52;;;;;;;6.00;4.00;;;;;;;;;;5058219;28;20122;-76
2021/07/13 01:58:21;;;;;;;4.47;4.07;;;;;;;;;;5050334;28;21402;-76
2021/07/13 02:00:48;;;;;;;4.95;4.32;;;;;;;;;;5060131;28;20068;-76
2021/07/13 02:03:15;;;;;;;5.38;3.95;;;;;;;;;;5049449;28;20503;-76
2021/07/13 02:05:42;;;;;;;4.78;4.28;;;;;;;;;;5054660;28;20077;-77
2021/07/13 02:08:09;;;;;;;6.13;3.75;;;;;;;;;;5055904;28;20172;-77
2021/07/13 02:10:35;;;;;;;4.32;3.63;;;;;;;;;;5057801;28;20075;-77
2021/07/13 02:13:03;;;;;;;5.22;4.07;;;;;;;;;;5051838;28;20085;-76
2021/07/13 02:15:29;;;;;;;4.38;3.70;;;;;;;;;;5034813;28;20061;-77
2021/07/13 02:17:56;;;;;;;4.43;4.03;;;;;;;;;;5059107;28;20133;-76
2021/07/13 02:20:24;;;;;;;4.35;3.80;;;;;;;;;;5056674;28;20064;-77
2021/07/13 02:22:51;;;;;;;4.13;3.72;;;;;;;;;;5061630;28;20036;-77
2021/07/13 02:25:17;;;;;;;4.65;3.70;;;;;;;;;;5033910;28;20375;-77
2021/07/13 02:28:03;;;;;;;5.18;3.60;;;;;;;;;;5040204;28;20086;-77
2021/07/13 02:30:30;;;;;;;4.10;3.70;;;;;;;;;;5042291;28;20056;-76
2021/07/13 02:33:06;;;;;;;5.13;3.83;;;;;;;;;;5043205;28;20057;-77
2021/07/13 02:35:38;;;;;;;5.03;3.75;;;;;;;;;;5045745;28;20134;-78
2021/07/13 02:38:05;;;;;;;4.35;3.95;;;;;;;;;;5034929;28;20125;-78
2021/07/13 02:40:31;;;;;;;4.85;3.90;;;;;;;;;;5058966;28;20056;-78
2021/07/13 02:42:58;;;;;;;4.57;3.65;;;;;;;;;;5059637;28;20071;-78
2021/07/13 02:45:25;;;;;;;4.90;3.83;;;;;;;;;;5061857;28;20113;-78
2021/07/13 02:47:53;;;;;;;5.38;4.05;;;;;;;;;;5056730;28;20051;-77
2021/07/13 02:50:19;;;;;;;4.72;4.00;;;;;;;;;;5048946;28;20117;-77
2021/07/13 02:52:47;;;;;;;5.75;4.43;;;;;;;;;;5038831;28;20069;-77
2021/07/13 02:55:17;;;;;;;7.80;4.20;;;;;;;;;;5051603;28;20452;-75
2021/07/13 02:57:47;;;;;;;6.05;4.05;;;;;;;;;;5053720;28;20097;-77
2021/07/13 03:00:15;;;;;;;4.47;3.85;;;;;;;;;;5034188;28;20562;-78
2021/07/13 03:02:43;;;;;;;5.53;4.55;;;;;;;;;;5052954;28;20061;-78
2021/07/13 03:05:14;;;;;;;5.40;4.28;;;;;;;;;;5061741;28;20056;-78
2021/07/13 03:07:40;;;;;;;;;;;;;;;;;;5059323;28;20059;-78
2021/07/13 03:10:07;;;;;;;5.15;3.92;;;;;;;;;;5057262;28;19947;-78
2021/07/13 03:12:34;;;;;;;4.80;4.10;;;;;;;;;;5058032;28;20068;-78
2021/07/13 03:15:02;;;;;;;4.60;3.90;;;;;;;;;;5031126;28;20049;-78
2021/07/13 03:17:28;;;;;;;6.82;4.00;;;;;;;;;;5068488;28;20101;-78
2021/07/13 03:19:55;;;;;;;4.53;3.85;;;;;;;;;;5058868;28;20397;-79
2021/07/13 03:22:25;;;;;;;5.38;4.22;;;;;;;;;;5050561;28;20057;-78
2021/07/13 03:24:52;;;;;;;4.35;3.90;;;;;;;;;;5037714;28;20071;-77
2021/07/13 03:27:21;;;;;;;6.22;4.00;;;;;;;;;;5062396;28;20425;-77
2021/07/13 03:29:49;;;;;;;4.57;4.07;;;;;;;;;;5062540;28;20079;-75
2021/07/13 03:32:16;;;;;;;4.80;4.20;;;;;;;;;;5054878;28;20049;-76
2021/07/13 03:34:44;;;;;;;4.70;4.00;;;;;;;;;;5049003;28;20832;-76
2021/07/13 03:37:10;;;;;;;4.80;4.10;;;;;;;;;;5057834;28;20084;-76
2021/07/13 03:39:37;;;;;;;4.75;3.95;;;;;;;;;;5050228;28;20043;-76
2021/07/13 03:42:04;;;;;;;4.53;4.00;;;;;;;;;;5058958;28;20076;-75
2021/07/13 03:44:31;;;;;;;6.28;4.25;;;;;;;;;;5048237;28;20449;-76
2021/07/13 03:46:57;;;;;;;4.85;4.13;;;;;;;;;;5058614;28;20497;-76
2021/07/13 03:49:24;;;;;;;5.07;4.18;;;;;;;;;;5065240;28;20056;-76
2021/07/13 03:51:51;;;;;;;4.40;4.00;;;;;;;;;;5062503;28;20056;-76
2021/07/13 03:54:21;;;;;;;4.53;4.13;;;;;;;;;;5060382;28;20165;-77
2021/07/13 03:56:49;;;;;;;5.20;4.10;;;;;;;;;;5060893;28;20130;-75
2021/07/13 03:59:16;;;;;;;5.28;4.13;;;;;;;;;;5058662;28;20640;-76
2021/07/13 04:01:43;;;;;;;6.82;4.07;;;;;;;;;;5043736;28;20484;-75
2021/07/13 04:04:10;;;;;;;4.55;3.78;;;;;;;;;;5059655;28;20052;-76
2021/07/13 04:06:36;;;;;;;5.97;4.45;;;;;;;;;;5061113;28;20109;-76
2021/07/13 04:09:05;;;;;;;4.80;4.10;;;;;;;;;;5052627;28;20086;-76
2021/07/13 04:11:31;;;;;;;4.85;4.35;;;;;;;;;;5053976;28;20059;-76
2021/07/13 04:13:57;;;;;;;4.22;3.83;;;;;;;;;;5054839;28;20059;-75
2021/07/13 04:16:24;;;;;;;5.25;4.35;;;;;;;;;;5056565;28;20161;-75
2021/07/13 04:18:50;;;;;;;5.68;4.20;;;;;;;;;;5059705;28;20057;-76
2021/07/13 04:21:17;;;;;;;4.43;4.03;;;;;;;;;;5061222;28;20786;-76
2021/07/13 04:23:43;;;;;;;5.68;4.13;;;;;;;;;;5058481;28;20424;-76
2021/07/13 04:26:09;;;;;;;4.53;4.10;;;;;;;;;;5061640;28;20111;-76
2021/07/13 04:28:36;;;;;;;4.78;3.92;;;;;;;;;;5051344;28;20061;-75
2021/07/13 04:31:03;;;;;;;4.22;3.83;;;;;;;;;;5047636;28;20056;-75
2021/07/13 04:33:30;;;;;;;4.95;3.85;;;;;;;;;;5056308;28;20055;-76
2021/07/13 04:35:57;;;;;;;5.95;4.03;;;;;;;;;;5050940;28;20116;-78
2021/07/13 04:38:24;;;;;;;5.03;4.30;;;;;;;;;;5060315;28;20504;-77
2021/07/13 04:40:50;;;;;;;4.90;3.92;;;;;;;;;;5065294;28;20057;-76
2021/07/13 04:43:17;;;;;;;5.10;3.97;;;;;;;;;;5058938;28;20500;-76
2021/07/13 04:45:43;;;;;;;6.00;4.18;;;;;;;;;;5063801;28;20060;-76
2021/07/13 04:48:10;;;;;;;4.75;4.10;;;;;;;;;;5059339;28;20056;-77
2021/07/13 04:50:36;;;;;;;4.65;3.90;;;;;;;;;;5060823;28;20484;-76
2021/07/13 04:53:03;;;;;;;5.28;4.78;;;;;;;;;;5043029;28;20076;-77
2021/07/13 04:55:30;;;;;;;4.55;4.15;;;;;;;;;;5063375;28;20064;-76
2021/07/13 04:57:57;;;;;;;5.97;4.40;;;;;;;;;;5056086;28;20068;-76
2021/07/13 05:00:23;;;;;;;4.55;3.97;;;;;;;;;;5057869;28;20052;-77
2021/07/13 05:02:49;;;;;;;4.57;4.07;;;;;;;;;;5064315;28;20059;-77
2021/07/13 05:05:17;;;;;;;4.63;4.15;;;;;;;;;;5058994;28;20059;-75
2021/07/13 05:07:44;;;;;;;5.50;4.60;;;;;;;;;;5058505;28;20132;-73
2021/07/13 05:10:12;;;;;;;4.57;4.18;;;;;;;;;;5061194;28;20503;-73
2021/07/13 05:12:39;;;;;;;5.25;4.40;;;;;;;;;;5057009;28;20052;-73
2021/07/13 05:15:06;;;;;;;8.57;4.30;;;;;;;;;;5055227;28;20621;-74
2021/07/13 05:17:33;;;;;;;5.68;4.03;;;;;;;;;;5037645;28;20075;-73
2021/07/13 05:19:59;;;;;;;5.22;4.50;;;;;;;;;;5056297;28;20449;-74
2021/07/13 05:22:26;;;;;;;4.63;4.00;;;;;;;;;;5052778;28;20057;-73
2021/07/13 05:24:52;;;;;;;9.38;4.40;;;;;;;;;;5054570;28;20769;-74
2021/07/13 05:27:19;;;;;;;5.28;4.30;;;;;;;;;;5054589;28;20134;-73
2021/07/13 05:29:45;;;;;;;5.35;4.13;;;;;;;;;;5056818;28;20461;-73
2021/07/13 05:32:11;;;;;;;5.75;4.10;;;;;;;;;;5054990;28;20133;-73
2021/07/13 05:34:38;;;;;;;6.38;4.90;;;;;;;;;;5057679;28;20060;-73
2021/07/13 05:37:06;;;;;;;5.18;4.35;;;;;;;;;;5052975;28;20122;-73
2021/07/13 05:39:33;;;;;;;6.90;4.65;;;;;;;;;;5056836;28;20048;-73
2021/07/13 05:41:59;;;;;;;7.22;4.53;;;;;;;;;;5050492;28;20083;-74
2021/07/13 05:44:25;;;;;;;5.88;4.53;;;;;;;;;;5053465;28;20076;-72
2021/07/13 05:46:52;;;;;;;8.18;4.45;;;;;;;;;;5050220;28;20040;-73
2021/07/13 05:49:18;;;;;;;5.90;4.43;;;;;;;;;;5053972;28;20243;-74
2021/07/13 05:51:45;;;;;;;5.82;4.90;;;;;;;;;;5056908;28;20076;-75
2021/07/13 05:54:13;;;;;;;6.07;4.88;;;;;;;;;;5051246;28;20039;-72
2021/07/13 05:56:39;;;;;;;6.47;4.82;;;;;;;;;;5031529;28;20117;-73
2021/07/13 05:59:06;;;;;;;4.47;4.00;;;;;;;;;;5051977;28;20028;-74
2021/07/13 06:01:32;;;;;;;4.95;4.45;;;;;;;;;;5051674;28;20059;-73
2021/07/13 06:03:59;;;;;;;5.05;4.53;;;;;;;;;;5049321;28;20061;-74
2021/07/13 06:06:27;;;;;;;8.10;5.00;;;;;;;;;;5050215;28;20083;-74
2021/07/13 06:08:54;;;;;;;5.78;4.43;;;;;;;;;;5041518;28;20060;-74
2021/07/13 06:11:20;;;;;;;5.15;4.65;;;;;;;;;;5035505;28;20074;-72
2021/07/13 06:13:47;;;;;;;6.80;5.53;;;;;;;;;;5049982;28;20064;-73
2021/07/13 06:16:13;;;;;;;7.30;5.10;;;;;;;;;;5049542;28;22794;-73
2021/07/13 06:18:39;;;;;;;7.35;4.80;;;;;;;;;;5049740;28;20071;-73
2021/07/13 06:21:08;;;;;;;6.03;4.30;;;;;;;;;;5052320;28;20120;-73
2021/07/13 06:23:36;;;;;;;3.95;3.55;;;;;;;;;;5037732;28;20056;-73
2021/07/13 06:26:02;;;;;;;5.63;4.57;;;;;;;;;;5052254;28;20516;-73
2021/07/13 06:28:29;;;;;;;5.38;4.88;;;;;;;;;;5038216;28;20049;-73
2021/07/13 06:30:55;;;;;;;6.05;5.25;;;;;;;;;;5035771;28;20068;-74
2021/07/13 06:33:22;;;;;;;5.70;4.88;;;;;;;;;;5052154;28;20048;-74
2021/07/13 06:35:48;;;;;;;7.93;5.13;;;;;;;;;;5054354;28;20075;-73
2021/07/13 06:38:16;;;;;;;5.88;5.00;;;;;;;;;;5053529;28;20052;-72
2021/07/13 06:40:42;;;;;;;5.97;4.80;;;;;;;;;;5041759;28;20453;-73
2021/07/13 06:43:09;;;;;;;6.07;5.15;;;;;;;;;;5053060;28;20065;-73
2021/07/13 06:45:35;;;;;;;5.22;4.50;;;;;;;;;;5050736;28;20137;-73
2021/07/13 06:48:01;;;;;;;6.75;5.20;;;;;;;;;;5051127;28;20063;-72
2021/07/13 06:50:28;;;;;;;7.80;5.65;;;;;;;;;;5051121;28;20072;-73
2021/07/13 06:52:54;;;;;;;5.30;4.80;;;;;;;;;;5046859;28;20441;-74
2021/07/13 06:55:21;;;;;;;6.72;4.93;;;;;;;;;;5054743;28;20114;-73
2021/07/13 06:57:47;;;;;;;8.40;5.47;;;;;;;;;;5052857;28;20122;-72
2021/07/13 07:00:14;;;;;;;5.50;4.65;;;;;;;;;;5048589;28;20121;-73
2021/07/13 07:02:41;;;;;;;6.82;4.82;;;;;;;;;;5050140;28;20053;-72
2021/07/13 07:05:08;;;;;;;6.63;5.50;;;;;;;;;;5051740;28;20066;-73
2021/07/13 07:07:34;;;;;;;5.97;4.90;;;;;;;;;;5059819;28;20508;-73
2021/07/13 07:10:01;;;;;;;4.15;3.70;;;;;;;;;;5033495;28;20072;-73
2021/07/13 07:12:27;;;;;;;4.75;4.25;;;;;;;;;;5053976;28;20134;-73
2021/07/13 07:14:54;;;;;;;5.93;3.85;;;;;;;;;;5058249;28;20514;-74
2021/07/13 07:17:20;;;;;;;5.97;4.25;;;;;;;;;;5053821;28;20128;-73
2021/07/13 07:19:47;;;;;;;5.60;4.50;;;;;;;;;;5052085;28;20064;-72
2021/07/13 07:22:13;;;;;;;4.53;4.10;;;;;;;;;;5056577;28;20071;-72
2021/07/13 07:24:39;;;;;;;5.95;4.63;;;;;;;;;;5057514;28;20524;-73
2021/07/13 07:27:06;;;;;;;4.97;4.47;;;;;;;;;;5041691;28;20075;-72
2021/07/13 07:29:32;;;;;;;7.93;5.20;;;;;;;;;;5059630;28;20056;-72
2021/07/13 07:31:59;;;;;;;5.53;4.05;;;;;;;;;;5054719;28;20072;-71
2021/07/13 07:34:25;;;;;;;6.05;4.45;;;;;;;;;;5058377;28;20060;-72
2021/07/13 07:36:51;;;;;;;5.22;4.70;;;;;;;;;;5054656;28;20072;-72
2021/07/13 07:39:18;;;;;;;7.18;4.95;;;;;;;;;;5055634;28;20491;-73
2021/07/13 07:41:44;;;;;;;5.97;3.83;;;;;;;;;;5059840;28;20064;-72
2021/07/13 07:44:10;;;;;;;3.35;2.80;;;;;;;;;;5055329;28;20053;-72
2021/07/13 07:46:41;;;;;;;5.25;4.30;;;;;;;;;;5060694;28;20532;-72
2021/07/13 07:49:08;;;;;;;4.93;4.30;;;;;;;;;;5054515;28;20082;-72
2021/07/13 07:51:34;;;;;;;5.53;4.70;;;;;;;;;;5041721;28;20056;-72
2021/07/13 07:54:01;;;;;;;4.80;3.75;;;;;;;;;;5055524;28;20126;-71
2021/07/13 07:56:27;;;;;;;4.38;3.97;;;;;;;;;;5052320;28;20122;-72
2021/07/13 07:58:54;;;;;;;6.13;4.35;;;;;;;;;;5055485;28;20064;-75
2021/07/13 08:01:20;;;;;;;6.40;3.92;;;;;;;;;;5055997;28;20465;-72
2021/07/13 08:03:46;;;;;;;5.43;3.88;;;;;;;;;;5054954;28;20057;-71
2021/07/13 08:06:13;;;;;;;5.38;4.70;;;;;;;;;;5053095;28;20037;-72
2021/07/13 08:08:39;;;;;;;4.78;4.28;;;;;;;;;;5041454;28;20541;-72
2021/07/13 08:11:06;;;;;;;4.35;3.75;;;;;;;;;;5056962;28;20067;-71
2021/07/13 08:13:32;;;;;;;4.38;3.83;;;;;;;;;;5053541;28;20154;-73
2021/07/13 08:15:58;;;;;;;5.63;4.72;;;;;;;;;;5058881;28;20071;-73
2021/07/13 08:18:28;;;;;;;4.97;3.58;;;;;;;;;;5034922;28;20139;-72
2021/07/13 08:20:54;;;;;;;3.70;3.30;;;;;;;;;;5035299;28;20061;-73
2021/07/13 08:23:21;;;;;;;5.93;4.63;;;;;;;;;;5053009;28;20056;-72
2021/07/13 08:25:47;;;;;;;4.20;3.65;;;;;;;;;;5055067;28;20077;-72
2021/07/13 08:28:14;;;;;;;5.07;4.57;;;;;;;;;;5062595;28;20108;-72
2021/07/13 08:30:45;;;;;;;5.40;4.88;;;;;;;;;;5037466;28;20680;-72
2021/07/13 08:33:11;;;;;;;4.15;3.75;;;;;;;;;;5039716;28;20110;-72
2021/07/13 08:35:38;;;;;;;5.18;4.13;;;;;;;;;;5051260;28;20061;-71
2021/07/13 08:38:05;;;;;;;5.50;4.63;;;;;;;;;;5055315;28;20554;-72
2021/07/13 08:40:32;;;;;;;5.53;4.20;;;;;;;;;;5053111;28;21053;-73
2021/07/13 08:42:59;;;;;;;6.45;5.10;;;;;;;;;;5064311;28;20063;-73
2021/07/13 08:45:26;;;;;;;6.50;4.60;;;;;;;;;;5057309;28;20066;-73
2021/07/13 08:47:54;;;;;;;6.22;5.50;;;;;;;;;;5051148;28;20140;-72
2021/07/13 08:50:22;;;;;;;4.22;3.40;;;;;;;;;;5049996;28;20068;-71
2021/07/13 08:52:49;;;;;;;8.25;5.03;;;;;;;;;;5056444;28;20053;-72
2021/07/13 08:55:15;;;;;;;6.90;5.20;;;;;;;;;;5054656;28;20035;-72
2021/07/13 08:57:42;;;;;;;8.13;5.75;;;;;;;;;;5050773;28;20056;-73
2021/07/13 09:00:10;;;;;;;5.13;4.47;;;;;;;;;;5050426;28;20086;-72
2021/07/13 09:02:37;;;;;;;6.18;4.95;;;;;;;;;;5056891;28;20150;-73
2021/07/13 09:05:03;;;;;;;5.35;4.82;;;;;;;;;;5055554;28;20511;-73
2021/07/13 09:07:30;;;;;;;5.88;5.28;;;;;;;;;;5058991;28;20061;-72
2021/07/13 09:10:06;;;;;;;5.78;5.05;;;;;;;;;;5049937;28;20060;-72
2021/07/13 09:12:32;;;;;;;5.95;5.35;;;;;;;;;;5058101;28;20580;-72
2021/07/13 09:15:00;;;;;;;4.93;3.92;;;;;;;;;;5052318;28;20117;-72
2021/07/13 09:17:32;;;;;;;4.90;4.40;;;;;;;;;;5059236;28;20064;-72
2021/07/13 09:20:01;;;;;;;5.32;4.82;;;;;;;;;;5035892;28;20083;-73
2021/07/13 09:22:28;;;;;;;7.47;4.32;;;;;;;;;;5060227;28;20060;-73
2021/07/13 09:24:55;;;;;;;4.43;4.00;;;;;;;;;;5061370;28;20052;-74
2021/07/13 09:27:22;;;;;;;6.78;5.18;;;;;;;;;;5057074;28;20047;-73
2021/07/13 09:29:51;;;;;;;7.35;5.53;;;;;;;;;;5031318;28;20052;-73
2021/07/13 09:32:35;;;;;;;5.97;5.38;;;;;;;;;;5054271;28;20965;-73
2021/07/13 09:35:04;;;;;;;5.35;4.22;;;;;;;;;;5054368;28;20057;-72
2021/07/13 09:37:32;;;;;;;4.10;3.70;;;;;;;;;;5039855;28;20069;-72
2021/07/13 09:39:58;;;;;;;4.65;3.80;;;;;;;;;;5038946;28;20212;-72
2021/07/13 09:42:26;;;;;;;5.60;4.95;;;;;;;;;;5046808;28;20122;-72
2021/07/13 09:44:53;;;;;;;6.85;5.80;;;;;;;;;;5047895;28;20453;-72
2021/07/13 09:47:31;;;;;;;7.05;5.38;;;;;;;;;;5052710;28;20048;-73
2021/07/13 09:49:58;;;;;;;6.05;5.43;;;;;;;;;;5042924;28;20083;-74
2021/07/13 09:52:26;;;;;;;5.88;4.63;;;;;;;;;;5059032;28;20039;-74
2021/07/13 09:54:52;;;;;;;7.18;4.93;;;;;;;;;;5052236;28;20060;-72
2021/07/13 09:57:28;;;;;;;5.80;4.80;;;;;;;;;;5054232;28;20061;-71
2021/07/13 09:59:56;;;;;;;3.78;3.10;;;;;;;;;;5057204;28;20564;-73
2021/07/13 10:02:26;;;;;;;6.72;5.55;;;;;;;;;;5054866;28;20123;-72
2021/07/13 10:04:55;;;;;;;4.97;3.78;;;;;;;;;;5054995;28;20193;-71
2021/07/13 10:07:21;;;;;;;8.15;4.75;;;;;;;;;;5056389;28;22379;-71
2021/07/13 10:09:48;;;;;;;8.45;6.05;;;;;;;;;;5059761;28;20500;-72
2021/07/13 10:12:16;;;;;;;6.82;5.00;;;;;;;;;;5050629;28;20065;-72
2021/07/13 10:14:44;;;;;;;10.20;5.88;;;;;;;;;;5057597;28;20065;-72
2021/07/13 10:17:11;;;;;;;7.53;6.22;;;;;;;;;;5060029;28;20056;-73
2021/07/13 10:19:40;;;;;;;8.13;5.95;;;;;;;;;;5041073;28;22416;-74
2021/07/13 10:22:07;;;;;;;5.53;4.65;;;;;;;;;;5039240;28;20060;-73
2021/07/13 10:24:34;;;;;;;6.68;5.90;;;;;;;;;;5057790;28;20518;-73
2021/07/13 10:27:02;;;;;;;8.63;6.18;;;;;;;;;;5059065;28;20440;-73
2021/07/13 10:29:34;;;;;;;7.82;6.10;;;;;;;;;;5056291;28;20444;-74
2021/07/13 10:32:08;;;;;;;9.57;6.50;;;;;;;;;;5055278;28;20064;-75
2021/07/13 10:34:52;;;;;;;9.65;6.20;;;;;;;;;;5055216;28;20513;-74
2021/07/13 10:37:27;;;;;;;8.18;6.53;;;;;;;;;;5056153;28;20092;-73
2021/07/13 10:39:54;;;;;;;10.85;6.85;;;;;;;;;;5053963;28;20117;-73
2021/07/13 10:42:39;;;;;;;7.60;6.80;;;;;;;;;;5049055;28;20648;-74
2021/07/13 10:45:14;;;;;;;7.40;6.43;;;;;;;;;;5052488;28;20064;-73
2021/07/13 10:47:59;;;;;;;9.38;6.72;;;;;;;;;;5030049;28;20520;-74
2021/07/13 10:50:25;;;;;;;7.65;6.20;;;;;;;;;;5049023;28;20140;-74
2021/07/13 10:52:52;;;;;;;6.82;5.15;;;;;;;;;;5048005;28;20043;-74
2021/07/13 10:55:30;;;;;;;6.40;5.45;;;;;;;;;;5047820;28;20060;-74
2021/07/13 10:58:15;;;;;;;6.22;5.63;;;;;;;;;;5050385;28;20072;-74
2021/07/13 11:00:51;;;;;;;7.90;5.35;;;;;;;;;;5049881;28;20114;-74
2021/07/13 11:03:32;;;;;;;9.02;6.60;;;;;;;;;;5055557;28;20130;-73
2021/07/13 11:05:59;;;;;;;5.00;4.50;;;;;;;;;;5050924;28;20127;-76
2021/07/13 11:08:47;;;;;;;7.70;6.78;;;;;;;;;;5031984;28;20134;-76
2021/07/13 11:11:17;;;;;;;7.00;6.13;;;;;;;;;;5045633;28;20096;-76
2021/07/13 11:13:44;;;;;;;7.50;5.95;;;;;;;;;;5058871;28;20056;-75
2021/07/13 11:16:11;;;;;;;7.07;6.38;;;;;;;;;;5052819;28;20131;-75
2021/07/13 11:18:38;;;;;;;7.68;6.93;;;;;;;;;;5050634;28;20102;-76
2021/07/13 11:21:16;;;;;;;8.10;7.30;;;;;;;;;;5036074;28;20527;-74
2021/07/13 11:23:44;;;;;;;8.63;7.47;;;;;;;;;;5060212;28;20067;-75
2021/07/13 11:26:11;;;;;;;7.95;7.05;;;;;;;;;;5051691;28;20065;-76
2021/07/13 11:28:38;;;;;;;6.38;5.47;;;;;;;;;;5052496;28;20064;-75
2021/07/13 11:31:05;;;;;;;8.23;6.93;;;;;;;;;;5052833;28;20505;-75
2021/07/13 11:33:31;;;;;;;7.80;6.13;;;;;;;;;;5054494;28;20060;-75
2021/07/13 11:36:03;;;;;;;7.68;6.97;;;;;;;;;;5049952;28;20133;-72
2021/07/13 11:38:36;;;;;;;7.55;6.85;;;;;;;;;;5051643;28;20080;-72
2021/07/13 11:41:09;;;;;;;8.05;7.05;;;;;;;;;;5055218;28;20110;-72
2021/07/13 11:43:36;;;;;;;8.18;7.28;;;;;;;;;;5054581;28;20785;-72
2021/07/13 11:46:13;;;;;;;7.63;6.35;;;;;;;;;;5056212;28;20187;-75
2021/07/13 11:48:39;;;;;;;9.05;7.32;;;;;;;;;;5053837;28;20109;-74
2021/07/13 11:51:09;;;;;;;6.97;6.20;;;;;;;;;;5056148;28;20060;-74
2021/07/13 11:53:36;;;;;;;8.05;7.25;;;;;;;;;;5056800;28;20133;-74
2021/07/13 11:56:03;;;;;;;43.97;24.00;;;;;;;;;;5059479;28;20061;-75
2021/07/13 11:58:30;;;;;;;38.40;24.55;;;;;;;;;;5056447;28;20064;-75
2021/07/13 12:01:16;;;;;;;55.00;34.63;;;;;;;;;;5051779;28;20057;-75
2021/07/13 12:03:42;;;;;;;37.20;24.70;;;;;;;;;;5050819;28;20052;-74
2021/07/13 12:06:13;;;;;;;29.63;18.17;;;;;;;;;;5057344;28;20064;-75
2021/07/13 12:08:39;;;;;;;13.10;9.97;;;;;;;;;;5054250;28;20087;-74
2021/07/13 12:11:06;;;;;;;30.05;21.33;;;;;;;;;;5057812;28;20064;-75
2021/07/13 12:13:32;;;;;;;27.42;18.48;;;;;;;;;;5053587;28;20452;-74
2021/07/13 12:16:18;;;;;;;19.60;12.95;;;;;;;;;;5052057;28;20057;-75
2021/07/13 12:18:45;;;;;;;19.35;13.95;;;;;;;;;;5058250;28;20134;-74
2021/07/13 12:21:15;;;;;;;16.23;11.25;;;;;;;;;;5059359;28;20056;-74
2021/07/13 12:23:42;;;;;;;26.40;18.48;;;;;;;;;;5052720;28;20104;-74
2021/07/13 12:26:25;;;;;;;19.25;13.45;;;;;;;;;;5048738;28;20478;-74
2021/07/13 12:29:10;;;;;;;17.25;11.70;;;;;;;;;;5038476;28;20118;-75
2021/07/13 12:31:49;;;;;;;16.10;11.70;;;;;;;;;;5050840;28;21383;-73
2021/07/13 12:34:19;;;;;;;19.85;15.48;;;;;;;;;;5058988;28;20471;-74
2021/07/13 12:36:46;;;;;;;13.35;8.88;;;;;;;;;;5052812;28;20048;-74
2021/07/13 12:39:23;;;;;;;12.60;9.40;;;;;;;;;;5052079;28;20110;-74
2021/07/13 12:42:01;;;;;;;13.23;9.27;;;;;;;;;;5043214;28;20118;-74
2021/07/13 12:44:35;;;;;;;13.70;10.38;;;;;;;;;;5052050;28;20788;-74
2021/07/13 12:47:22;;;;;;;16.05;10.30;;;;;;;;;;5054677;28;20574;-75
2021/07/13 12:50:03;;;;;;;11.43;8.88;;;;;;;;;;5056296;28;20072;-74
2021/07/13 12:52:33;;;;;;;10.48;7.10;;;;;;;;;;5050774;28;20742;-75
2021/07/13 12:55:01;;;;;;;10.13;7.57;;;;;;;;;;5030161;28;20061;-75
2021/07/13 12:57:37;;;;;;;8.88;6.53;;;;;;;;;;5053133;28;20076;-75
2021/07/13 13:00:04;;;;;;;10.52;7.45;;;;;;;;;;5050373;28;20138;-74
2021/07/13 13:02:30;;;;;;;15.70;10.55;;;;;;;;;;5057172;28;20130;-74
2021/07/13 13:04:57;;;;;;;8.10;6.20;;;;;;;;;;5057680;28;20101;-74
2021/07/13 13:07:23;;;;;;;8.38;5.93;;;;;;;;;;5057361;28;21608;-75
2021/07/13 13:09:50;;;;;;;7.25;6.05;;;;;;;;;;5040538;28;20048;-75
2021/07/13 13:12:17;;;;;;;8.05;6.90;;;;;;;;;;5037094;28;20099;-74
2021/07/13 13:14:44;;;;;;;6.55;5.22;;;;;;;;;;5061346;28;20056;-74
2021/07/13 13:17:16;;;;;;;7.50;6.70;;;;;;;;;;5055753;28;20537;-75
2021/07/13 13:19:44;;;;;;;9.18;6.03;;;;;;;;;;5053002;28;20065;-73
2021/07/13 13:22:10;;;;;;;6.45;5.57;;;;;;;;;;5050333;28;20048;-73
2021/07/13 13:24:37;;;;;;;6.60;6.00;;;;;;;;;;5051063;28;20110;-73
2021/07/13 13:27:04;;;;;;;6.80;6.10;;;;;;;;;;5050895;28;20134;-73
2021/07/13 13:29:33;;;;;;;7.25;6.28;;;;;;;;;;5061752;28;20064;-74
2021/07/13 13:32:00;;;;;;;5.30;4.38;;;;;;;;;;5052713;28;20053;-75
2021/07/13 13:34:27;;;;;;;8.00;5.80;;;;;;;;;;5057208;28;20052;-72
2021/07/13 13:36:55;;;;;;;7.50;6.07;;;;;;;;;;5057592;28;20136;-74
2021/07/13 13:39:22;;;;;;;6.68;6.07;;;;;;;;;;5055471;28;21400;-73
2021/07/13 13:41:52;;;;;;;6.80;5.97;;;;;;;;;;5057238;28;20574;-73
2021/07/13 13:44:19;;;;;;;6.47;5.25;;;;;;;;;;5048219;28;20152;-73
2021/07/13 13:46:46;;;;;;;8.30;5.93;;;;;;;;;;5050220;28;20063;-74
2021/07/13 13:49:12;;;;;;;7.82;6.60;;;;;;;;;;5047980;28;20122;-73
2021/07/13 13:51:39;;;;;;;5.88;4.75;;;;;;;;;;5058941;28;20064;-74
2021/07/13 13:54:05;;;;;;;6.00;5.03;;;;;;;;;;5038790;28;20556;-73
2021/07/13 13:56:34;;;;;;;5.18;4.63;;;;;;;;;;5051888;28;20121;-73
2021/07/13 13:59:00;;;;;;;6.35;4.35;;;;;;;;;;5047938;28;20076;-74
2021/07/13 14:01:27;;;;;;;7.63;4.93;;;;;;;;;;5048124;28;20053;-74
2021/07/13 14:03:54;;;;;;;7.78;6.10;;;;;;;;;;5054119;28;20078;-74
2021/07/13 14:06:20;;;;;;;7.28;4.63;;;;;;;;;;5038827;28;20060;-75
2021/07/13 14:08:49;;;;;;;5.10;4.60;;;;;;;;;;5051154;28;20114;-75
2021/07/13 14:11:19;;;;;;;6.93;6.22;;;;;;;;;;5059065;28;20075;-74
2021/07/13 14:13:46;;;;;;;6.68;6.03;;;;;;;;;;5049548;28;20052;-74
2021/07/13 14:16:12;;;;;;;6.93;6.22;;;;;;;;;;5053977;28;20445;-75
2021/07/13 14:18:39;;;;;;;5.57;5.07;;;;;;;;;;5055870;28;20114;-74
2021/07/13 14:21:06;;;;;;;5.00;4.50;;;;;;;;;;5050563;28;20078;-73
2021/07/13 14:23:32;;;;;;;7.88;6.13;;;;;;;;;;5059387;28;20044;-73
2021/07/13 14:25:59;;;;;;;4.68;4.20;;;;;;;;;;5050450;28;20036;-74
2021/07/13 14:28:25;;;;;;;7.60;5.97;;;;;;;;;;5047589;28;20503;-73
2021/07/13 14:30:52;;;;;;;7.93;5.55;;;;;;;;;;5058008;28;20056;-72
2021/07/13 14:33:18;;;;;;;6.63;5.93;;;;;;;;;;5056076;28;20056;-73
2021/07/13 14:35:44;;;;;;;5.43;4.90;;;;;;;;;;5053865;28;20112;-73
2021/07/13 14:38:12;;;;;;;4.65;4.20;;;;;;;;;;5048134;28;20094;-72
2021/07/13 14:40:38;;;;;;;8.50;6.45;;;;;;;;;;5051691;28;20064;-72
2021/07/13 14:43:05;;;;;;;6.85;6.25;;;;;;;;;;5050830;28;20068;-72
2021/07/13 14:45:31;;;;;;;6.97;6.35;;;;;;;;;;5037740;28;20465;-71
2021/07/13 14:47:58;;;;;;;6.75;5.63;;;;;;;;;;5051936;28;20064;-72